RYR6571 EGNX-LIPH
Flight info
| Callsign | RYR6571 |
|---|---|
| Flight time | 1h 50m |
| Altitude | 39000 |
| Route | SAPCO Y53 DTY M605 FINMA UM605 BENSU Q70 BIG L15 MOTOX DCT EKCEC DCT VELOK DCT VERMA DCT NITEP DCT ETINO DCT DEVDI DCT RIPUS DCT RESIA DCT MOVOR P131 ADOSA L615 VIC |
| Aircraft | B38M/M-SADE3FGILRWY/SB1 |
Departure
| Time | 2026-04-24 19:24 |
|---|---|
| Airport | East Midlands Airport (EGNX) |
Arrival
| Time | 2026-04-24 21:15 |
|---|---|
| Airport | Treviso Airport (LIPH) |
| Time | Latitude | Longitude | Altitude | Speed | Heading |
|---|---|---|---|---|---|
| 2026-04-24 18:54 | 52.82731 | -1.33503 | 303 ft | 0 kts | 88° |
| 2026-04-24 19:14 | 52.82730 | -1.33512 | 303 ft | 4 kts | 86° |
| 2026-04-24 19:14 | 52.82725 | -1.33555 | 303 ft | 4 kts | 65° |
| 2026-04-24 19:14 | 52.82710 | -1.33587 | 304 ft | 4 kts | 24° |
| 2026-04-24 19:14 | 52.82694 | -1.33591 | 303 ft | 1 kts | 352° |
| 2026-04-24 19:15 | 52.82691 | -1.33590 | 303 ft | 0 kts | 352° |
| 2026-04-24 19:20 | 52.82704 | -1.33593 | 304 ft | 6 kts | 352° |
| 2026-04-24 19:20 | 52.82787 | -1.33607 | 306 ft | 15 kts | 357° |
| 2026-04-24 19:20 | 52.82885 | -1.33614 | 306 ft | 12 kts | 342° |
| 2026-04-24 19:21 | 52.82914 | -1.33714 | 306 ft | 10 kts | 269° |
| 2026-04-24 19:21 | 52.82913 | -1.33842 | 307 ft | 12 kts | 270° |
| 2026-04-24 19:21 | 52.82910 | -1.33999 | 305 ft | 16 kts | 268° |
| 2026-04-24 19:21 | 52.82906 | -1.34209 | 303 ft | 20 kts | 270° |
| 2026-04-24 19:22 | 52.82908 | -1.34354 | 307 ft | 19 kts | 270° |
| 2026-04-24 19:22 | 52.82903 | -1.34670 | 306 ft | 22 kts | 268° |
| 2026-04-24 19:22 | 52.82900 | -1.34846 | 308 ft | 12 kts | 268° |
| 2026-04-24 19:22 | 52.82944 | -1.34934 | 308 ft | 10 kts | 355° |
| 2026-04-24 19:23 | 52.83017 | -1.34937 | 307 ft | 13 kts | 359° |
| 2026-04-24 19:23 | 52.83063 | -1.34846 | 305 ft | 13 kts | 89° |
| 2026-04-24 19:23 | 52.83069 | -1.34524 | 304 ft | 61 kts | 88° |
| 2026-04-24 19:23 | 52.83093 | -1.33380 | 312 ft | 135 kts | 88° |
| 2026-04-24 19:24 | 52.83121 | -1.31549 | 600 ft | 171 kts | 90° |
| 2026-04-24 19:24 | 52.83103 | -1.29601 | 1644 ft | 166 kts | 96° |
| 2026-04-24 19:24 | 52.82981 | -1.27651 | 2400 ft | 180 kts | 96° |
| 2026-04-24 19:24 | 52.82839 | -1.25459 | 2923 ft | 206 kts | 99° |
| 2026-04-24 19:25 | 52.82248 | -1.23161 | 3463 ft | 233 kts | 125° |
| 2026-04-24 19:25 | 52.81164 | -1.21006 | 4154 ft | 253 kts | 130° |
| 2026-04-24 19:25 | 52.79960 | -1.18766 | 5014 ft | 264 kts | 131° |
| 2026-04-24 19:25 | 52.78683 | -1.16564 | 6045 ft | 269 kts | 141° |
| 2026-04-24 19:26 | 52.76959 | -1.15402 | 7023 ft | 273 kts | 175° |
| 2026-04-24 19:26 | 52.75065 | -1.15721 | 7879 ft | 280 kts | 200° |
| 2026-04-24 19:26 | 52.73350 | -1.17301 | 8593 ft | 285 kts | 220° |
| 2026-04-24 19:26 | 52.71971 | -1.19641 | 8809 ft | 285 kts | 228° |
| 2026-04-24 19:27 | 52.70461 | -1.21750 | 8895 ft | 286 kts | 217° |
| 2026-04-24 19:27 | 52.68870 | -1.23714 | 9053 ft | 287 kts | 218° |
| 2026-04-24 19:27 | 52.67283 | -1.25721 | 9171 ft | 288 kts | 218° |
| 2026-04-24 19:27 | 52.65704 | -1.27739 | 9210 ft | 288 kts | 218° |
| 2026-04-24 19:28 | 52.64134 | -1.29757 | 9210 ft | 288 kts | 219° |
| 2026-04-24 19:28 | 52.62554 | -1.31797 | 9213 ft | 287 kts | 219° |
| 2026-04-24 19:28 | 52.60979 | -1.33833 | 9211 ft | 288 kts | 219° |
| 2026-04-24 19:28 | 52.59382 | -1.35775 | 9198 ft | 288 kts | 209° |
| 2026-04-24 19:29 | 52.55500 | -1.36426 | 9211 ft | 288 kts | 162° |
| 2026-04-24 19:29 | 52.53617 | -1.35277 | 9297 ft | 292 kts | 159° |
| 2026-04-24 19:29 | 52.51735 | -1.34056 | 10226 ft | 287 kts | 158° |
| 2026-04-24 19:30 | 52.49849 | -1.32811 | 10950 ft | 301 kts | 158° |
| 2026-04-24 19:30 | 52.47848 | -1.31473 | 11496 ft | 317 kts | 158° |
| 2026-04-24 19:30 | 52.45782 | -1.30081 | 12190 ft | 327 kts | 158° |
| 2026-04-24 19:30 | 52.43672 | -1.28656 | 13143 ft | 329 kts | 158° |
| 2026-04-24 19:31 | 52.41541 | -1.27214 | 14050 ft | 333 kts | 158° |
| 2026-04-24 19:31 | 52.39384 | -1.25755 | 14852 ft | 337 kts | 157° |
| 2026-04-24 19:31 | 52.37208 | -1.24283 | 15676 ft | 340 kts | 157° |
| 2026-04-24 19:31 | 52.35011 | -1.22801 | 16485 ft | 344 kts | 157° |
| 2026-04-24 19:32 | 52.32788 | -1.21302 | 17248 ft | 347 kts | 157° |
| 2026-04-24 19:32 | 52.30542 | -1.19788 | 18015 ft | 351 kts | 157° |
| 2026-04-24 19:32 | 52.28268 | -1.18258 | 18733 ft | 355 kts | 157° |
| 2026-04-24 19:32 | 52.25969 | -1.16715 | 19312 ft | 361 kts | 158° |
| 2026-04-24 19:33 | 52.23635 | -1.15148 | 19876 ft | 366 kts | 159° |
| 2026-04-24 19:33 | 52.21296 | -1.13580 | 20467 ft | 371 kts | 159° |
| 2026-04-24 19:33 | 52.18859 | -1.11949 | 21025 ft | 376 kts | 160° |
| 2026-04-24 19:33 | 52.16362 | -1.10822 | 21557 ft | 377 kts | 172° |
| 2026-04-24 19:34 | 52.13768 | -1.09988 | 22120 ft | 382 kts | 172° |
| 2026-04-24 19:34 | 52.11113 | -1.09119 | 22699 ft | 386 kts | 173° |
| 2026-04-24 19:34 | 52.08495 | -1.08263 | 23272 ft | 391 kts | 173° |
| 2026-04-24 19:34 | 52.05818 | -1.07388 | 23811 ft | 394 kts | 174° |
| 2026-04-24 19:35 | 52.03120 | -1.06505 | 24278 ft | 398 kts | 174° |
| 2026-04-24 19:35 | 52.00395 | -1.05614 | 24744 ft | 401 kts | 173° |
| 2026-04-24 19:35 | 51.97648 | -1.04720 | 25211 ft | 404 kts | 173° |
| 2026-04-24 19:35 | 51.94885 | -1.03822 | 25668 ft | 407 kts | 173° |
| 2026-04-24 19:36 | 51.92101 | -1.02918 | 26128 ft | 409 kts | 173° |
| 2026-04-24 19:36 | 51.89299 | -1.02009 | 26573 ft | 412 kts | 173° |
| 2026-04-24 19:36 | 51.86468 | -1.01092 | 27024 ft | 415 kts | 173° |
| 2026-04-24 19:36 | 51.83624 | -1.00172 | 27439 ft | 418 kts | 173° |
| 2026-04-24 19:37 | 51.80764 | -0.99248 | 27865 ft | 421 kts | 173° |
| 2026-04-24 19:37 | 51.77878 | -0.98316 | 28298 ft | 424 kts | 173° |
| 2026-04-24 19:37 | 51.75001 | -0.97389 | 28709 ft | 427 kts | 173° |
| 2026-04-24 19:37 | 51.72061 | -0.96443 | 29123 ft | 429 kts | 173° |
| 2026-04-24 19:38 | 51.69118 | -0.95496 | 29532 ft | 432 kts | 172° |
| 2026-04-24 19:38 | 51.66171 | -0.94551 | 29925 ft | 435 kts | 172° |
| 2026-04-24 19:38 | 51.63197 | -0.93539 | 30313 ft | 439 kts | 167° |
| 2026-04-24 19:38 | 51.60377 | -0.91593 | 30670 ft | 446 kts | 150° |
| 2026-04-24 19:39 | 51.57962 | -0.88439 | 31019 ft | 453 kts | 134° |
| 2026-04-24 19:39 | 51.56132 | -0.84278 | 31349 ft | 458 kts | 118° |
| 2026-04-24 19:39 | 51.54842 | -0.79588 | 31670 ft | 461 kts | 114° |
| 2026-04-24 19:39 | 51.53575 | -0.74839 | 31974 ft | 464 kts | 114° |
| 2026-04-24 19:40 | 51.52320 | -0.70053 | 32298 ft | 466 kts | 114° |
| 2026-04-24 19:40 | 51.51069 | -0.65232 | 32605 ft | 468 kts | 114° |
| 2026-04-24 19:40 | 51.49817 | -0.60392 | 32913 ft | 471 kts | 114° |
| 2026-04-24 19:40 | 51.48563 | -0.55544 | 33212 ft | 473 kts | 114° |
| 2026-04-24 19:41 | 51.47305 | -0.50691 | 33501 ft | 475 kts | 114° |
| 2026-04-24 19:41 | 51.46023 | -0.45754 | 33808 ft | 477 kts | 114° |
| 2026-04-24 19:41 | 51.44746 | -0.40847 | 34104 ft | 479 kts | 114° |
| 2026-04-24 19:41 | 51.43458 | -0.35903 | 34381 ft | 481 kts | 114° |
| 2026-04-24 19:42 | 51.42165 | -0.30954 | 34665 ft | 482 kts | 114° |
| 2026-04-24 19:42 | 51.40869 | -0.26006 | 35030 ft | 481 kts | 114° |
| 2026-04-24 19:42 | 51.39578 | -0.21088 | 35412 ft | 479 kts | 114° |
| 2026-04-24 19:42 | 51.38356 | -0.16442 | 35763 ft | 477 kts | 114° |
| 2026-04-24 19:43 | 51.37067 | -0.11552 | 36129 ft | 476 kts | 114° |
| 2026-04-24 19:43 | 51.35781 | -0.06682 | 36488 ft | 474 kts | 114° |
| 2026-04-24 19:43 | 51.34504 | -0.01853 | 36823 ft | 473 kts | 114° |
| 2026-04-24 19:43 | 51.33227 | 0.03014 | 37157 ft | 472 kts | 113° |
| 2026-04-24 19:44 | 51.32008 | 0.07865 | 37475 ft | 471 kts | 113° |
| 2026-04-24 19:44 | 51.30780 | 0.12723 | 37798 ft | 469 kts | 113° |
| 2026-04-24 19:44 | 51.29556 | 0.17544 | 38097 ft | 468 kts | 113° |
| 2026-04-24 19:44 | 51.28331 | 0.22354 | 38396 ft | 467 kts | 113° |
| 2026-04-24 19:45 | 51.27120 | 0.27100 | 38697 ft | 466 kts | 113° |
| 2026-04-24 19:45 | 51.25881 | 0.31946 | 38963 ft | 465 kts | 113° |
| 2026-04-24 19:45 | 51.24674 | 0.36654 | 39169 ft | 464 kts | 113° |
| 2026-04-24 19:45 | 51.23451 | 0.41417 | 39281 ft | 465 kts | 113° |
| 2026-04-24 19:46 | 51.22223 | 0.46191 | 39304 ft | 465 kts | 113° |
| 2026-04-24 19:46 | 51.19773 | 0.55680 | 39297 ft | 463 kts | 114° |
| 2026-04-24 19:47 | 51.17309 | 0.65183 | 39290 ft | 463 kts | 114° |
| 2026-04-24 19:47 | 51.14837 | 0.74678 | 39277 ft | 463 kts | 114° |
| 2026-04-24 19:48 | 51.12363 | 0.84144 | 39264 ft | 463 kts | 114° |
| 2026-04-24 19:48 | 51.08735 | 0.97953 | 39264 ft | 463 kts | 114° |
| 2026-04-24 19:49 | 51.03753 | 1.16786 | 39259 ft | 464 kts | 114° |
| 2026-04-24 19:50 | 50.98729 | 1.35624 | 39255 ft | 463 kts | 114° |
| 2026-04-24 19:51 | 50.94464 | 1.49283 | 39257 ft | 457 kts | 130° |
| 2026-04-24 19:52 | 50.88716 | 1.61453 | 39260 ft | 460 kts | 129° |
| 2026-04-24 19:52 | 50.84853 | 1.69536 | 39260 ft | 460 kts | 129° |
| 2026-04-24 19:53 | 50.80984 | 1.77600 | 39258 ft | 460 kts | 129° |
| 2026-04-24 19:54 | 50.75168 | 1.89670 | 39254 ft | 460 kts | 129° |
| 2026-04-24 19:54 | 50.71288 | 1.97693 | 39253 ft | 460 kts | 129° |
| 2026-04-24 19:55 | 50.68713 | 2.03006 | 39247 ft | 460 kts | 129° |
| 2026-04-24 19:55 | 50.62896 | 2.12810 | 39243 ft | 458 kts | 136° |
| 2026-04-24 19:56 | 50.58413 | 2.19940 | 39242 ft | 458 kts | 136° |
| 2026-04-24 19:56 | 50.53923 | 2.27050 | 39239 ft | 458 kts | 136° |
| 2026-04-24 19:57 | 50.49431 | 2.34142 | 39239 ft | 458 kts | 136° |
| 2026-04-24 19:57 | 50.44966 | 2.41171 | 39239 ft | 458 kts | 136° |
| 2026-04-24 19:58 | 50.40469 | 2.48231 | 39233 ft | 457 kts | 136° |
| 2026-04-24 19:58 | 50.35965 | 2.55282 | 39232 ft | 457 kts | 136° |
| 2026-04-24 19:59 | 50.31460 | 2.62313 | 39223 ft | 457 kts | 136° |
| 2026-04-24 19:59 | 50.26958 | 2.69320 | 39216 ft | 457 kts | 136° |
| 2026-04-24 20:00 | 50.23183 | 2.75181 | 39214 ft | 456 kts | 136° |
| 2026-04-24 20:00 | 50.18114 | 2.83512 | 39200 ft | 456 kts | 125° |
| 2026-04-24 20:01 | 50.15122 | 2.90353 | 39198 ft | 457 kts | 126° |
| 2026-04-24 20:01 | 50.11535 | 2.98439 | 39209 ft | 456 kts | 126° |
| 2026-04-24 20:02 | 50.07932 | 3.06553 | 39205 ft | 455 kts | 126° |
| 2026-04-24 20:02 | 50.04334 | 3.14633 | 39205 ft | 455 kts | 126° |
| 2026-04-24 20:03 | 50.00724 | 3.22714 | 39200 ft | 454 kts | 126° |
| 2026-04-24 20:03 | 49.96587 | 3.30073 | 39203 ft | 452 kts | 133° |
| 2026-04-24 20:04 | 49.92341 | 3.37259 | 39201 ft | 452 kts | 134° |
| 2026-04-24 20:04 | 49.88081 | 3.44422 | 39196 ft | 451 kts | 134° |
| 2026-04-24 20:05 | 49.83828 | 3.51554 | 39200 ft | 450 kts | 134° |
| 2026-04-24 20:05 | 49.79572 | 3.58670 | 39197 ft | 450 kts | 134° |
| 2026-04-24 20:06 | 49.75347 | 3.65713 | 39197 ft | 449 kts | 134° |
| 2026-04-24 20:06 | 49.71096 | 3.72781 | 39195 ft | 449 kts | 134° |
| 2026-04-24 20:07 | 49.67527 | 3.78701 | 39193 ft | 448 kts | 134° |
| 2026-04-24 20:07 | 49.62597 | 3.86854 | 39191 ft | 447 kts | 134° |
| 2026-04-24 20:08 | 49.58351 | 3.93857 | 39188 ft | 446 kts | 134° |
| 2026-04-24 20:08 | 49.54114 | 4.00824 | 39189 ft | 446 kts | 134° |
| 2026-04-24 20:09 | 49.49867 | 4.07790 | 39176 ft | 445 kts | 134° |
| 2026-04-24 20:09 | 49.45628 | 4.14725 | 39175 ft | 444 kts | 134° |
| 2026-04-24 20:10 | 49.41394 | 4.21631 | 39169 ft | 444 kts | 135° |
| 2026-04-24 20:10 | 49.37153 | 4.28492 | 39165 ft | 443 kts | 135° |
| 2026-04-24 20:11 | 49.32909 | 4.35348 | 39161 ft | 442 kts | 135° |
| 2026-04-24 20:11 | 49.28671 | 4.42175 | 39164 ft | 441 kts | 135° |
| 2026-04-24 20:12 | 49.24441 | 4.48972 | 39164 ft | 441 kts | 135° |
| 2026-04-24 20:12 | 49.20238 | 4.55707 | 39165 ft | 440 kts | 135° |
| 2026-04-24 20:13 | 49.16006 | 4.62472 | 39166 ft | 440 kts | 135° |
| 2026-04-24 20:13 | 49.11770 | 4.69224 | 39169 ft | 440 kts | 135° |
| 2026-04-24 20:14 | 49.07539 | 4.75950 | 39169 ft | 439 kts | 135° |
| 2026-04-24 20:14 | 49.03299 | 4.82674 | 39168 ft | 439 kts | 135° |
| 2026-04-24 20:15 | 48.99064 | 4.89372 | 39164 ft | 439 kts | 135° |
| 2026-04-24 20:15 | 48.94826 | 4.96057 | 39161 ft | 439 kts | 136° |
| 2026-04-24 20:16 | 48.90586 | 5.02731 | 39160 ft | 439 kts | 136° |
| 2026-04-24 20:16 | 48.86827 | 5.10021 | 39167 ft | 441 kts | 126° |
| 2026-04-24 20:17 | 48.83399 | 5.17749 | 39159 ft | 442 kts | 126° |
| 2026-04-24 20:17 | 48.78252 | 5.29363 | 39160 ft | 442 kts | 126° |
| 2026-04-24 20:18 | 48.74813 | 5.37097 | 39166 ft | 443 kts | 126° |
| 2026-04-24 20:18 | 48.71389 | 5.44775 | 39165 ft | 443 kts | 127° |
| 2026-04-24 20:19 | 48.67934 | 5.52503 | 39155 ft | 443 kts | 127° |
| 2026-04-24 20:19 | 48.64470 | 5.60226 | 39160 ft | 444 kts | 127° |
| 2026-04-24 20:20 | 48.60997 | 5.67951 | 39158 ft | 444 kts | 127° |
| 2026-04-24 20:20 | 48.57518 | 5.75665 | 39157 ft | 445 kts | 127° |
| 2026-04-24 20:21 | 48.54024 | 5.83389 | 39155 ft | 445 kts | 127° |
| 2026-04-24 20:21 | 48.50525 | 5.91102 | 39156 ft | 446 kts | 127° |
| 2026-04-24 20:22 | 48.47023 | 5.98802 | 39152 ft | 446 kts | 127° |
| 2026-04-24 20:22 | 48.43506 | 6.06510 | 39156 ft | 446 kts | 127° |
| 2026-04-24 20:23 | 48.40012 | 6.14149 | 39157 ft | 446 kts | 127° |
| 2026-04-24 20:23 | 48.36483 | 6.21840 | 39155 ft | 446 kts | 128° |
| 2026-04-24 20:24 | 48.32957 | 6.29504 | 39154 ft | 446 kts | 128° |
| 2026-04-24 20:24 | 48.29415 | 6.37181 | 39151 ft | 446 kts | 128° |
| 2026-04-24 20:25 | 48.25873 | 6.44835 | 39153 ft | 446 kts | 128° |
| 2026-04-24 20:25 | 48.22329 | 6.52474 | 39149 ft | 446 kts | 128° |
| 2026-04-24 20:26 | 48.18778 | 6.60104 | 39152 ft | 446 kts | 128° |
| 2026-04-24 20:26 | 48.15248 | 6.67670 | 39156 ft | 446 kts | 128° |
| 2026-04-24 20:27 | 48.11685 | 6.75285 | 39159 ft | 446 kts | 128° |
| 2026-04-24 20:27 | 48.08120 | 6.82882 | 39155 ft | 446 kts | 128° |
| 2026-04-24 20:28 | 48.04550 | 6.90471 | 39150 ft | 446 kts | 128° |
| 2026-04-24 20:28 | 48.00973 | 6.98050 | 39137 ft | 446 kts | 128° |
| 2026-04-24 20:29 | 47.97393 | 7.05617 | 39144 ft | 446 kts | 128° |
| 2026-04-24 20:29 | 47.93806 | 7.13179 | 39139 ft | 446 kts | 129° |
| 2026-04-24 20:30 | 47.90215 | 7.20725 | 39132 ft | 446 kts | 129° |
| 2026-04-24 20:30 | 47.86615 | 7.28271 | 39133 ft | 447 kts | 129° |
| 2026-04-24 20:31 | 47.83009 | 7.35812 | 39128 ft | 447 kts | 129° |
| 2026-04-24 20:31 | 47.79427 | 7.43285 | 39125 ft | 447 kts | 129° |
| 2026-04-24 20:32 | 47.75810 | 7.50809 | 39131 ft | 447 kts | 129° |
| 2026-04-24 20:32 | 47.72142 | 7.58277 | 39135 ft | 447 kts | 129° |
| 2026-04-24 20:33 | 47.68458 | 7.65708 | 39134 ft | 447 kts | 129° |
| 2026-04-24 20:33 | 47.64769 | 7.73141 | 39122 ft | 447 kts | 129° |
| 2026-04-24 20:34 | 47.61075 | 7.80562 | 39125 ft | 448 kts | 129° |
| 2026-04-24 20:34 | 47.57371 | 7.87986 | 39124 ft | 448 kts | 129° |
| 2026-04-24 20:35 | 47.53675 | 7.95371 | 39141 ft | 448 kts | 129° |
| 2026-04-24 20:35 | 47.49956 | 8.02784 | 39130 ft | 448 kts | 129° |
| 2026-04-24 20:36 | 47.46234 | 8.10181 | 39140 ft | 448 kts | 129° |
| 2026-04-24 20:36 | 47.42513 | 8.17558 | 39150 ft | 448 kts | 129° |
| 2026-04-24 20:37 | 47.38785 | 8.24929 | 39150 ft | 448 kts | 129° |
| 2026-04-24 20:37 | 47.35054 | 8.32287 | 39144 ft | 448 kts | 129° |
| 2026-04-24 20:38 | 47.31344 | 8.39581 | 39152 ft | 448 kts | 129° |
| 2026-04-24 20:38 | 47.27593 | 8.46943 | 39156 ft | 448 kts | 129° |
| 2026-04-24 20:39 | 47.23914 | 8.54356 | 39147 ft | 449 kts | 128° |
| 2026-04-24 20:39 | 47.20244 | 8.61787 | 39144 ft | 449 kts | 128° |
| 2026-04-24 20:40 | 47.16569 | 8.69201 | 39145 ft | 449 kts | 128° |
| 2026-04-24 20:40 | 47.12888 | 8.76607 | 39138 ft | 449 kts | 128° |
| 2026-04-24 20:41 | 47.09204 | 8.83999 | 39139 ft | 449 kts | 128° |
| 2026-04-24 20:41 | 47.05511 | 8.91391 | 39130 ft | 449 kts | 128° |
| 2026-04-24 20:42 | 47.01843 | 8.98713 | 39129 ft | 449 kts | 128° |
| 2026-04-24 20:42 | 46.98142 | 9.06079 | 39123 ft | 449 kts | 128° |
| 2026-04-24 20:43 | 46.94435 | 9.13437 | 39124 ft | 449 kts | 128° |
| 2026-04-24 20:43 | 46.90726 | 9.20784 | 39121 ft | 449 kts | 128° |
| 2026-04-24 20:44 | 46.87011 | 9.28121 | 39117 ft | 449 kts | 128° |
| 2026-04-24 20:44 | 46.83291 | 9.35446 | 39121 ft | 449 kts | 128° |
| 2026-04-24 20:45 | 46.79565 | 9.42767 | 39118 ft | 449 kts | 128° |
| 2026-04-24 20:45 | 46.75849 | 9.50048 | 38316 ft | 449 kts | 128° |
| 2026-04-24 20:46 | 46.73964 | 9.53732 | 37246 ft | 457 kts | 128° |
| 2026-04-24 20:46 | 46.72055 | 9.57462 | 36503 ft | 458 kts | 127° |
| 2026-04-24 20:46 | 46.70164 | 9.61150 | 36109 ft | 450 kts | 127° |
| 2026-04-24 20:46 | 46.68328 | 9.64726 | 35726 ft | 444 kts | 127° |
| 2026-04-24 20:47 | 46.66485 | 9.68309 | 35222 ft | 441 kts | 128° |
| 2026-04-24 20:47 | 46.64654 | 9.71867 | 34692 ft | 438 kts | 128° |
| 2026-04-24 20:47 | 46.62833 | 9.75400 | 34206 ft | 435 kts | 128° |
| 2026-04-24 20:47 | 46.61022 | 9.78909 | 33653 ft | 432 kts | 128° |
| 2026-04-24 20:48 | 46.59227 | 9.82385 | 33137 ft | 428 kts | 127° |
| 2026-04-24 20:48 | 46.57445 | 9.85829 | 32662 ft | 424 kts | 127° |
| 2026-04-24 20:48 | 46.55680 | 9.89238 | 32196 ft | 420 kts | 127° |
| 2026-04-24 20:48 | 46.53928 | 9.92617 | 31724 ft | 417 kts | 127° |
| 2026-04-24 20:49 | 46.52194 | 9.95959 | 31264 ft | 413 kts | 127° |
| 2026-04-24 20:49 | 46.50471 | 9.99275 | 30810 ft | 410 kts | 127° |
| 2026-04-24 20:49 | 46.48759 | 10.02566 | 30355 ft | 407 kts | 126° |
| 2026-04-24 20:49 | 46.46861 | 10.05597 | 29741 ft | 407 kts | 140° |
| 2026-04-24 20:50 | 46.44657 | 10.08129 | 29302 ft | 401 kts | 139° |
| 2026-04-24 20:50 | 46.42527 | 10.10699 | 28887 ft | 396 kts | 139° |
| 2026-04-24 20:50 | 46.40417 | 10.13236 | 28460 ft | 392 kts | 139° |
| 2026-04-24 20:50 | 46.38327 | 10.15741 | 28032 ft | 388 kts | 139° |
| 2026-04-24 20:51 | 46.36279 | 10.18191 | 27612 ft | 385 kts | 139° |
| 2026-04-24 20:51 | 46.34225 | 10.20646 | 27198 ft | 382 kts | 139° |
| 2026-04-24 20:51 | 46.32180 | 10.23090 | 26784 ft | 379 kts | 139° |
| 2026-04-24 20:51 | 46.30154 | 10.25506 | 26379 ft | 376 kts | 139° |
| 2026-04-24 20:52 | 46.28142 | 10.27905 | 25985 ft | 374 kts | 139° |
| 2026-04-24 20:52 | 46.26139 | 10.30289 | 25598 ft | 371 kts | 139° |
| 2026-04-24 20:52 | 46.24150 | 10.32655 | 25216 ft | 369 kts | 139° |
| 2026-04-24 20:52 | 46.22176 | 10.35002 | 24837 ft | 367 kts | 139° |
| 2026-04-24 20:53 | 46.20207 | 10.37339 | 24448 ft | 365 kts | 139° |
| 2026-04-24 20:53 | 46.18252 | 10.39657 | 24076 ft | 363 kts | 139° |
| 2026-04-24 20:53 | 46.16306 | 10.41962 | 23707 ft | 361 kts | 139° |
| 2026-04-24 20:53 | 46.14367 | 10.44258 | 23265 ft | 360 kts | 139° |
| 2026-04-24 20:54 | 46.12436 | 10.46542 | 22875 ft | 357 kts | 139° |
| 2026-04-24 20:54 | 46.10523 | 10.48802 | 22498 ft | 354 kts | 139° |
| 2026-04-24 20:54 | 46.08624 | 10.51044 | 22122 ft | 351 kts | 139° |
| 2026-04-24 20:54 | 46.06743 | 10.53263 | 21779 ft | 348 kts | 139° |
| 2026-04-24 20:55 | 46.04898 | 10.55437 | 21428 ft | 346 kts | 139° |
| 2026-04-24 20:55 | 46.03040 | 10.57624 | 21054 ft | 344 kts | 139° |
| 2026-04-24 20:55 | 46.01194 | 10.59795 | 20711 ft | 342 kts | 139° |
| 2026-04-24 20:55 | 45.99359 | 10.61952 | 20364 ft | 340 kts | 140° |
| 2026-04-24 20:56 | 45.97533 | 10.64095 | 20013 ft | 338 kts | 140° |
| 2026-04-24 20:56 | 45.95716 | 10.66227 | 19662 ft | 336 kts | 140° |
| 2026-04-24 20:56 | 45.93908 | 10.68347 | 19311 ft | 335 kts | 140° |
| 2026-04-24 20:56 | 45.92105 | 10.70459 | 18964 ft | 333 kts | 140° |
| 2026-04-24 20:57 | 45.90312 | 10.72556 | 18616 ft | 332 kts | 140° |
| 2026-04-24 20:57 | 45.88524 | 10.74647 | 18241 ft | 331 kts | 140° |
| 2026-04-24 20:57 | 45.86746 | 10.76725 | 17863 ft | 329 kts | 140° |
| 2026-04-24 20:57 | 45.84976 | 10.78792 | 17501 ft | 327 kts | 140° |
| 2026-04-24 20:58 | 45.83219 | 10.80841 | 17147 ft | 325 kts | 140° |
| 2026-04-24 20:58 | 45.81473 | 10.82876 | 16780 ft | 323 kts | 140° |
| 2026-04-24 20:58 | 45.79733 | 10.84901 | 16438 ft | 321 kts | 140° |
| 2026-04-24 20:58 | 45.78008 | 10.86910 | 16110 ft | 319 kts | 140° |
| 2026-04-24 20:59 | 45.76291 | 10.88906 | 15769 ft | 317 kts | 140° |
| 2026-04-24 20:59 | 45.75156 | 10.90224 | 15548 ft | 319 kts | 140° |
| 2026-04-24 20:59 | 45.73434 | 10.92225 | 15206 ft | 318 kts | 140° |
| 2026-04-24 20:59 | 45.71718 | 10.94217 | 14868 ft | 317 kts | 140° |
| 2026-04-24 21:00 | 45.70012 | 10.96195 | 14531 ft | 315 kts | 140° |
| 2026-04-24 21:00 | 45.68310 | 10.98167 | 14199 ft | 314 kts | 140° |
| 2026-04-24 21:00 | 45.66622 | 11.00122 | 13853 ft | 313 kts | 139° |
| 2026-04-24 21:00 | 45.65167 | 11.02412 | 13435 ft | 310 kts | 117° |
| 2026-04-24 21:01 | 45.64524 | 11.05296 | 13086 ft | 303 kts | 93° |
| 2026-04-24 21:01 | 45.64453 | 11.08273 | 12817 ft | 298 kts | 90° |
| 2026-04-24 21:01 | 45.64402 | 11.11219 | 12506 ft | 295 kts | 89° |
| 2026-04-24 21:01 | 45.64362 | 11.14103 | 12191 ft | 293 kts | 89° |
| 2026-04-24 21:02 | 45.64327 | 11.17001 | 11884 ft | 290 kts | 89° |
| 2026-04-24 21:02 | 45.64296 | 11.19876 | 11584 ft | 289 kts | 89° |
| 2026-04-24 21:02 | 45.64268 | 11.22733 | 11264 ft | 287 kts | 89° |
| 2026-04-24 21:02 | 45.64239 | 11.25572 | 10969 ft | 285 kts | 89° |
| 2026-04-24 21:03 | 45.64210 | 11.28393 | 10678 ft | 284 kts | 89° |
| 2026-04-24 21:03 | 45.64181 | 11.31207 | 10358 ft | 283 kts | 89° |
| 2026-04-24 21:03 | 45.64151 | 11.34001 | 10060 ft | 281 kts | 89° |
| 2026-04-24 21:03 | 45.64121 | 11.36784 | 9735 ft | 280 kts | 89° |
| 2026-04-24 21:04 | 45.64089 | 11.39567 | 9349 ft | 281 kts | 89° |
| 2026-04-24 21:04 | 45.64057 | 11.42351 | 9030 ft | 279 kts | 89° |
| 2026-04-24 21:04 | 45.64024 | 11.45114 | 8729 ft | 277 kts | 89° |
| 2026-04-24 21:04 | 45.63991 | 11.47852 | 8429 ft | 275 kts | 90° |
| 2026-04-24 21:05 | 45.63957 | 11.50575 | 8116 ft | 274 kts | 90° |
| 2026-04-24 21:05 | 45.63923 | 11.53280 | 7840 ft | 271 kts | 90° |
| 2026-04-24 21:05 | 45.63888 | 11.55964 | 7560 ft | 269 kts | 90° |
| 2026-04-24 21:05 | 45.63853 | 11.58632 | 7274 ft | 267 kts | 90° |
| 2026-04-24 21:06 | 45.63818 | 11.61280 | 6987 ft | 266 kts | 90° |
| 2026-04-24 21:06 | 45.63782 | 11.63917 | 6700 ft | 265 kts | 91° |
| 2026-04-24 21:06 | 45.63526 | 11.66504 | 6384 ft | 264 kts | 112° |
| 2026-04-24 21:06 | 45.62518 | 11.68657 | 6061 ft | 262 kts | 137° |
| 2026-04-24 21:07 | 45.61119 | 11.70303 | 5801 ft | 259 kts | 142° |
| 2026-04-24 21:07 | 45.59727 | 11.71865 | 5512 ft | 258 kts | 143° |
| 2026-04-24 21:07 | 45.58287 | 11.73457 | 5228 ft | 257 kts | 143° |
| 2026-04-24 21:07 | 45.56878 | 11.74998 | 5027 ft | 254 kts | 143° |
| 2026-04-24 21:08 | 45.55562 | 11.76556 | 4951 ft | 244 kts | 131° |
| 2026-04-24 21:08 | 45.54776 | 11.78669 | 4802 ft | 236 kts | 103° |
| 2026-04-24 21:08 | 45.54770 | 11.80930 | 4622 ft | 229 kts | 77° |
| 2026-04-24 21:08 | 45.55226 | 11.83064 | 4490 ft | 221 kts | 70° |
| 2026-04-24 21:09 | 45.55740 | 11.85069 | 4352 ft | 214 kts | 69° |
| 2026-04-24 21:09 | 45.56254 | 11.87021 | 4220 ft | 206 kts | 69° |
| 2026-04-24 21:09 | 45.56749 | 11.88895 | 4090 ft | 198 kts | 69° |
| 2026-04-24 21:09 | 45.57226 | 11.90697 | 3960 ft | 190 kts | 69° |
| 2026-04-24 21:10 | 45.57689 | 11.92441 | 3746 ft | 186 kts | 69° |
| 2026-04-24 21:10 | 45.58142 | 11.94148 | 3517 ft | 182 kts | 69° |
| 2026-04-24 21:10 | 45.58587 | 11.95825 | 3279 ft | 179 kts | 69° |
| 2026-04-24 21:10 | 45.59023 | 11.97465 | 3053 ft | 176 kts | 69° |
| 2026-04-24 21:11 | 45.59454 | 11.99088 | 2842 ft | 174 kts | 69° |
| 2026-04-24 21:11 | 45.59880 | 12.00694 | 2627 ft | 170 kts | 69° |
| 2026-04-24 21:11 | 45.60289 | 12.02233 | 2402 ft | 163 kts | 69° |
| 2026-04-24 21:11 | 45.60684 | 12.03723 | 2178 ft | 159 kts | 69° |
| 2026-04-24 21:12 | 45.61067 | 12.05164 | 1978 ft | 153 kts | 69° |
| 2026-04-24 21:12 | 45.61437 | 12.06557 | 1801 ft | 148 kts | 70° |
| 2026-04-24 21:12 | 45.61797 | 12.07916 | 1591 ft | 145 kts | 70° |
| 2026-04-24 21:12 | 45.62155 | 12.09261 | 1392 ft | 145 kts | 69° |
| 2026-04-24 21:13 | 45.62510 | 12.10599 | 1201 ft | 144 kts | 70° |
| 2026-04-24 21:13 | 45.62863 | 12.11930 | 1008 ft | 143 kts | 69° |
| 2026-04-24 21:13 | 45.63214 | 12.13255 | 818 ft | 142 kts | 69° |
| 2026-04-24 21:13 | 45.63564 | 12.14573 | 635 ft | 141 kts | 69° |
| 2026-04-24 21:14 | 45.63912 | 12.15885 | 427 ft | 141 kts | 69° |
| 2026-04-24 21:14 | 45.64261 | 12.17201 | 242 ft | 143 kts | 68° |
| 2026-04-24 21:14 | 45.64614 | 12.18521 | 67 ft | 140 kts | 68° |
| 2026-04-24 21:14 | 45.64890 | 12.19556 | 60 ft | 75 kts | 69° |
| 2026-04-24 21:15 | 45.65006 | 12.19997 | 60 ft | 27 kts | 69° |
| 2026-04-24 21:15 | 45.65075 | 12.20173 | 63 ft | 14 kts | 42° |
| 2026-04-24 21:15 | 45.65133 | 12.20221 | 61 ft | 9 kts | 26° |
| 2026-04-24 21:15 | 45.65201 | 12.20270 | 64 ft | 10 kts | 24° |
| 2026-04-24 21:16 | 45.65263 | 12.20310 | 59 ft | 10 kts | 27° |
| 2026-04-24 21:16 | 45.65296 | 12.20358 | 62 ft | 1 kts | 68° |
| 2026-04-24 21:16 | 45.65302 | 12.20381 | 65 ft | 4 kts | 68° |
| 2026-04-24 21:16 | 45.65318 | 12.20435 | 60 ft | 7 kts | 59° |
| 2026-04-24 21:17 | 45.65363 | 12.20441 | 62 ft | 6 kts | 340° |
| 2026-04-24 21:17 | 45.65382 | 12.20430 | 60 ft | 1 kts | 338° |
| 2026-04-24 21:17 | 45.65385 | 12.20429 | 61 ft | 0 kts | 338° |